sensor_id;sensor_type;location;lat;lon;timestamp;P1;durP1;ratioP1;P2;durP2;ratioP2
11614;SDS011;5863;52.832;4.758;2023-05-07T00:00:21;17.75;;;15.88;;
11614;SDS011;5863;52.832;4.758;2023-05-07T00:02:49;17.52;;;14.85;;
11614;SDS011;5863;52.832;4.758;2023-05-07T00:05:16;17.17;;;15.38;;
11614;SDS011;5863;52.832;4.758;2023-05-07T00:07:42;16.80;;;15.00;;
11614;SDS011;5863;52.832;4.758;2023-05-07T00:10:09;16.70;;;15.00;;
11614;SDS011;5863;52.832;4.758;2023-05-07T00:12:37;17.25;;;14.75;;
11614;SDS011;5863;52.832;4.758;2023-05-07T00:15:04;17.77;;;15.32;;
11614;SDS011;5863;52.832;4.758;2023-05-07T00:17:32;17.25;;;15.35;;
11614;SDS011;5863;52.832;4.758;2023-05-07T00:20:02;17.30;;;14.57;;
11614;SDS011;5863;52.832;4.758;2023-05-07T00:22:29;17.63;;;14.75;;
11614;SDS011;5863;52.832;4.758;2023-05-07T00:24:57;18.95;;;14.98;;
11614;SDS011;5863;52.832;4.758;2023-05-07T00:27:24;17.13;;;15.32;;
11614;SDS011;5863;52.832;4.758;2023-05-07T00:29:51;18.58;;;15.48;;
11614;SDS011;5863;52.832;4.758;2023-05-07T00:32:17;17.70;;;15.90;;
11614;SDS011;5863;52.832;4.758;2023-05-07T00:34:44;16.50;;;14.73;;
11614;SDS011;5863;52.832;4.758;2023-05-07T00:37:12;17.65;;;15.77;;
11614;SDS011;5863;52.832;4.758;2023-05-07T00:39:39;17.98;;;16.08;;
11614;SDS011;5863;52.832;4.758;2023-05-07T00:42:05;16.42;;;14.73;;
11614;SDS011;5863;52.832;4.758;2023-05-07T00:44:33;16.90;;;15.07;;
11614;SDS011;5863;52.832;4.758;2023-05-07T00:47:00;17.42;;;15.60;;
11614;SDS011;5863;52.832;4.758;2023-05-07T00:49:30;20.70;;;15.63;;
11614;SDS011;5863;52.832;4.758;2023-05-07T00:52:03;17.40;;;15.18;;
11614;SDS011;5863;52.832;4.758;2023-05-07T00:54:32;17.42;;;15.43;;
11614;SDS011;5863;52.832;4.758;2023-05-07T00:57:01;17.15;;;14.95;;
11614;SDS011;5863;52.832;4.758;2023-05-07T00:59:28;17.85;;;15.52;;
11614;SDS011;5863;52.832;4.758;2023-05-07T01:01:55;19.23;;;15.60;;
11614;SDS011;5863;52.832;4.758;2023-05-07T01:04:22;18.33;;;16.17;;
11614;SDS011;5863;52.832;4.758;2023-05-07T01:06:49;17.98;;;15.48;;
11614;SDS011;5863;52.832;4.758;2023-05-07T01:09:16;17.48;;;15.07;;
11614;SDS011;5863;52.832;4.758;2023-05-07T01:11:45;18.27;;;15.98;;
11614;SDS011;5863;52.832;4.758;2023-05-07T01:14:13;19.38;;;16.17;;
11614;SDS011;5863;52.832;4.758;2023-05-07T01:16:41;20.33;;;16.55;;
11614;SDS011;5863;52.832;4.758;2023-05-07T01:19:08;17.95;;;16.13;;
11614;SDS011;5863;52.832;4.758;2023-05-07T01:21:38;19.45;;;16.70;;
11614;SDS011;5863;52.832;4.758;2023-05-07T01:24:12;18.55;;;16.50;;
11614;SDS011;5863;52.832;4.758;2023-05-07T01:26:39;20.88;;;18.00;;
11614;SDS011;5863;52.832;4.758;2023-05-07T01:29:05;21.30;;;17.38;;
11614;SDS011;5863;52.832;4.758;2023-05-07T01:31:32;21.05;;;17.88;;
11614;SDS011;5863;52.832;4.758;2023-05-07T01:34:00;20.20;;;18.00;;
11614;SDS011;5863;52.832;4.758;2023-05-07T01:36:29;21.90;;;18.08;;
11614;SDS011;5863;52.832;4.758;2023-05-07T01:38:57;19.25;;;16.88;;
11614;SDS011;5863;52.832;4.758;2023-05-07T01:41:26;24.02;;;19.25;;
11614;SDS011;5863;52.832;4.758;2023-05-07T01:43:53;24.85;;;20.98;;
11614;SDS011;5863;52.832;4.758;2023-05-07T01:46:20;22.60;;;18.05;;
11614;SDS011;5863;52.832;4.758;2023-05-07T01:48:47;21.20;;;19.00;;
11614;SDS011;5863;52.832;4.758;2023-05-07T01:51:15;21.02;;;17.90;;
11614;SDS011;5863;52.832;4.758;2023-05-07T01:53:42;21.40;;;19.13;;
11614;SDS011;5863;52.832;4.758;2023-05-07T01:56:10;21.13;;;18.77;;
11614;SDS011;5863;52.832;4.758;2023-05-07T01:58:38;21.95;;;19.58;;
11614;SDS011;5863;52.832;4.758;2023-05-07T02:01:05;25.83;;;21.65;;
11614;SDS011;5863;52.832;4.758;2023-05-07T02:03:32;23.40;;;20.58;;
11614;SDS011;5863;52.832;4.758;2023-05-07T02:05:58;26.08;;;21.15;;
11614;SDS011;5863;52.832;4.758;2023-05-07T02:08:26;24.83;;;22.05;;
11614;SDS011;5863;52.832;4.758;2023-05-07T02:10:52;23.23;;;20.42;;
11614;SDS011;5863;52.832;4.758;2023-05-07T02:13:19;27.60;;;21.17;;
11614;SDS011;5863;52.832;4.758;2023-05-07T02:15:48;27.48;;;22.02;;
11614;SDS011;5863;52.832;4.758;2023-05-07T02:18:15;27.08;;;22.65;;
11614;SDS011;5863;52.832;4.758;2023-05-07T02:20:43;26.45;;;23.48;;
11614;SDS011;5863;52.832;4.758;2023-05-07T02:23:09;26.58;;;23.02;;
11614;SDS011;5863;52.832;4.758;2023-05-07T02:25:36;29.10;;;23.40;;
11614;SDS011;5863;52.832;4.758;2023-05-07T02:28:03;28.50;;;23.80;;
11614;SDS011;5863;52.832;4.758;2023-05-07T02:30:30;25.33;;;21.92;;
11614;SDS011;5863;52.832;4.758;2023-05-07T02:32:59;26.98;;;23.58;;
11614;SDS011;5863;52.832;4.758;2023-05-07T02:35:26;26.85;;;22.35;;
11614;SDS011;5863;52.832;4.758;2023-05-07T02:37:53;27.60;;;23.20;;
11614;SDS011;5863;52.832;4.758;2023-05-07T02:40:19;28.48;;;24.13;;
11614;SDS011;5863;52.832;4.758;2023-05-07T02:42:46;28.60;;;23.73;;
11614;SDS011;5863;52.832;4.758;2023-05-07T02:45:13;27.42;;;24.23;;
11614;SDS011;5863;52.832;4.758;2023-05-07T02:47:40;26.52;;;23.60;;
11614;SDS011;5863;52.832;4.758;2023-05-07T02:50:08;29.42;;;25.02;;
11614;SDS011;5863;52.832;4.758;2023-05-07T02:52:36;29.92;;;25.92;;
11614;SDS011;5863;52.832;4.758;2023-05-07T02:55:03;30.20;;;25.48;;
11614;SDS011;5863;52.832;4.758;2023-05-07T02:57:30;32.70;;;27.45;;
11614;SDS011;5863;52.832;4.758;2023-05-07T02:59:57;28.15;;;25.10;;
11614;SDS011;5863;52.832;4.758;2023-05-07T03:02:24;31.10;;;26.08;;
11614;SDS011;5863;52.832;4.758;2023-05-07T03:04:51;29.73;;;25.52;;
11614;SDS011;5863;52.832;4.758;2023-05-07T03:07:19;32.97;;;27.85;;
11614;SDS011;5863;52.832;4.758;2023-05-07T03:09:48;30.55;;;25.58;;
11614;SDS011;5863;52.832;4.758;2023-05-07T03:12:15;30.98;;;25.90;;
11614;SDS011;5863;52.832;4.758;2023-05-07T03:14:42;30.88;;;26.42;;
11614;SDS011;5863;52.832;4.758;2023-05-07T03:17:11;29.55;;;25.77;;
11614;SDS011;5863;52.832;4.758;2023-05-07T03:19:38;31.35;;;27.52;;
11614;SDS011;5863;52.832;4.758;2023-05-07T03:22:05;34.08;;;27.20;;
11614;SDS011;5863;52.832;4.758;2023-05-07T03:24:33;31.05;;;26.77;;
11614;SDS011;5863;52.832;4.758;2023-05-07T03:27:00;32.67;;;27.48;;
11614;SDS011;5863;52.832;4.758;2023-05-07T03:29:27;32.38;;;26.00;;
11614;SDS011;5863;52.832;4.758;2023-05-07T03:31:54;30.67;;;26.65;;
11614;SDS011;5863;52.832;4.758;2023-05-07T03:34:21;29.05;;;24.65;;
11614;SDS011;5863;52.832;4.758;2023-05-07T03:36:48;28.13;;;25.20;;
11614;SDS011;5863;52.832;4.758;2023-05-07T03:39:14;28.05;;;25.05;;
11614;SDS011;5863;52.832;4.758;2023-05-07T03:41:45;28.00;;;23.23;;
11614;SDS011;5863;52.832;4.758;2023-05-07T03:44:12;28.80;;;24.88;;
11614;SDS011;5863;52.832;4.758;2023-05-07T03:46:39;29.10;;;24.85;;
11614;SDS011;5863;52.832;4.758;2023-05-07T03:49:05;28.20;;;25.10;;
11614;SDS011;5863;52.832;4.758;2023-05-07T03:51:32;28.15;;;24.90;;
11614;SDS011;5863;52.832;4.758;2023-05-07T03:53:59;26.85;;;22.55;;
11614;SDS011;5863;52.832;4.758;2023-05-07T03:56:25;29.73;;;24.45;;
11614;SDS011;5863;52.832;4.758;2023-05-07T03:58:54;26.13;;;23.48;;
11614;SDS011;5863;52.832;4.758;2023-05-07T04:01:20;26.45;;;23.38;;
11614;SDS011;5863;52.832;4.758;2023-05-07T04:03:47;27.17;;;23.23;;
11614;SDS011;5863;52.832;4.758;2023-05-07T04:06:17;24.88;;;21.45;;
11614;SDS011;5863;52.832;4.758;2023-05-07T04:08:44;24.85;;;21.95;;
11614;SDS011;5863;52.832;4.758;2023-05-07T04:11:11;24.30;;;21.65;;
11614;SDS011;5863;52.832;4.758;2023-05-07T04:13:38;23.70;;;21.25;;
11614;SDS011;5863;52.832;4.758;2023-05-07T04:16:06;23.92;;;21.42;;
11614;SDS011;5863;52.832;4.758;2023-05-07T04:18:33;22.38;;;19.98;;
11614;SDS011;5863;52.832;4.758;2023-05-07T04:21:00;21.73;;;19.48;;
11614;SDS011;5863;52.832;4.758;2023-05-07T04:23:27;21.65;;;19.30;;
11614;SDS011;5863;52.832;4.758;2023-05-07T04:25:53;21.30;;;19.00;;
11614;SDS011;5863;52.832;4.758;2023-05-07T04:28:21;21.80;;;19.33;;
11614;SDS011;5863;52.832;4.758;2023-05-07T04:30:47;20.00;;;17.90;;
11614;SDS011;5863;52.832;4.758;2023-05-07T04:33:15;18.98;;;17.02;;
11614;SDS011;5863;52.832;4.758;2023-05-07T04:35:43;20.15;;;17.52;;
11614;SDS011;5863;52.832;4.758;2023-05-07T04:38:13;18.33;;;16.48;;
11614;SDS011;5863;52.832;4.758;2023-05-07T04:40:40;16.70;;;15.05;;
11614;SDS011;5863;52.832;4.758;2023-05-07T04:43:07;16.98;;;15.25;;
11614;SDS011;5863;52.832;4.758;2023-05-07T04:45:34;16.30;;;14.65;;
11614;SDS011;5863;52.832;4.758;2023-05-07T04:48:01;15.73;;;14.18;;
11614;SDS011;5863;52.832;4.758;2023-05-07T04:50:29;14.52;;;13.05;;
11614;SDS011;5863;52.832;4.758;2023-05-07T04:52:56;14.10;;;12.65;;
11614;SDS011;5863;52.832;4.758;2023-05-07T04:55:24;15.85;;;13.20;;
11614;SDS011;5863;52.832;4.758;2023-05-07T04:57:51;15.18;;;12.73;;
11614;SDS011;5863;52.832;4.758;2023-05-07T05:00:19;14.07;;;11.98;;
11614;SDS011;5863;52.832;4.758;2023-05-07T05:02:45;13.93;;;11.68;;
11614;SDS011;5863;52.832;4.758;2023-05-07T05:05:12;13.57;;;12.18;;
11614;SDS011;5863;52.832;4.758;2023-05-07T05:07:40;13.13;;;11.82;;
11614;SDS011;5863;52.832;4.758;2023-05-07T05:10:07;12.88;;;11.50;;
11614;SDS011;5863;52.832;4.758;2023-05-07T05:12:33;12.48;;;11.18;;
11614;SDS011;5863;52.832;4.758;2023-05-07T05:15:00;12.18;;;10.95;;
11614;SDS011;5863;52.832;4.758;2023-05-07T05:17:27;12.80;;;10.77;;
11614;SDS011;5863;52.832;4.758;2023-05-07T05:19:54;11.55;;;10.35;;
11614;SDS011;5863;52.832;4.758;2023-05-07T05:22:21;13.50;;;10.73;;
11614;SDS011;5863;52.832;4.758;2023-05-07T05:24:49;13.57;;;10.57;;
11614;SDS011;5863;52.832;4.758;2023-05-07T05:27:15;11.77;;;10.38;;
11614;SDS011;5863;52.832;4.758;2023-05-07T05:29:42;11.68;;;10.45;;
11614;SDS011;5863;52.832;4.758;2023-05-07T05:32:09;11.48;;;10.38;;
11614;SDS011;5863;52.832;4.758;2023-05-07T05:34:35;13.07;;;9.93;;
11614;SDS011;5863;52.832;4.758;2023-05-07T05:37:02;13.63;;;10.43;;
11614;SDS011;5863;52.832;4.758;2023-05-07T05:39:29;11.65;;;10.55;;
11614;SDS011;5863;52.832;4.758;2023-05-07T05:41:57;10.88;;;9.88;;
11614;SDS011;5863;52.832;4.758;2023-05-07T05:44:23;13.32;;;10.40;;
11614;SDS011;5863;52.832;4.758;2023-05-07T05:46:50;12.95;;;10.43;;
11614;SDS011;5863;52.832;4.758;2023-05-07T05:49:19;11.50;;;10.30;;
11614;SDS011;5863;52.832;4.758;2023-05-07T05:51:46;11.30;;;10.20;;
11614;SDS011;5863;52.832;4.758;2023-05-07T05:54:12;10.95;;;9.85;;
11614;SDS011;5863;52.832;4.758;2023-05-07T05:56:40;12.23;;;10.93;;
11614;SDS011;5863;52.832;4.758;2023-05-07T05:59:08;11.98;;;10.77;;
11614;SDS011;5863;52.832;4.758;2023-05-07T06:01:36;14.55;;;11.85;;
11614;SDS011;5863;52.832;4.758;2023-05-07T06:04:05;16.85;;;13.25;;
11614;SDS011;5863;52.832;4.758;2023-05-07T06:06:32;15.68;;;13.23;;
11614;SDS011;5863;52.832;4.758;2023-05-07T06:08:59;15.15;;;13.68;;
11614;SDS011;5863;52.832;4.758;2023-05-07T06:11:25;16.42;;;14.70;;
11614;SDS011;5863;52.832;4.758;2023-05-07T06:13:52;16.75;;;15.05;;
11614;SDS011;5863;52.832;4.758;2023-05-07T06:16:20;19.13;;;17.10;;
11614;SDS011;5863;52.832;4.758;2023-05-07T06:18:47;19.42;;;17.30;;
11614;SDS011;5863;52.832;4.758;2023-05-07T06:21:19;22.10;;;19.75;;
11614;SDS011;5863;52.832;4.758;2023-05-07T06:23:46;21.35;;;19.10;;
11614;SDS011;5863;52.832;4.758;2023-05-07T06:26:12;21.58;;;19.42;;
11614;SDS011;5863;52.832;4.758;2023-05-07T06:28:39;22.80;;;20.50;;
11614;SDS011;5863;52.832;4.758;2023-05-07T06:31:16;24.42;;;21.13;;
11614;SDS011;5863;52.832;4.758;2023-05-07T06:33:46;26.55;;;23.70;;
11614;SDS011;5863;52.832;4.758;2023-05-07T06:36:14;26.80;;;24.00;;
11614;SDS011;5863;52.832;4.758;2023-05-07T06:41:10;28.90;;;25.55;;
11614;SDS011;5863;52.832;4.758;2023-05-07T06:43:37;27.70;;;24.77;;
11614;SDS011;5863;52.832;4.758;2023-05-07T06:46:03;27.02;;;23.88;;
11614;SDS011;5863;52.832;4.758;2023-05-07T06:48:30;27.92;;;24.98;;
11614;SDS011;5863;52.832;4.758;2023-05-07T06:50:58;27.70;;;23.77;;
11614;SDS011;5863;52.832;4.758;2023-05-07T06:53:25;25.80;;;23.30;;
11614;SDS011;5863;52.832;4.758;2023-05-07T06:55:56;25.50;;;22.90;;
11614;SDS011;5863;52.832;4.758;2023-05-07T06:58:23;25.23;;;22.63;;
11614;SDS011;5863;52.832;4.758;2023-05-07T07:00:49;24.50;;;21.88;;
11614;SDS011;5863;52.832;4.758;2023-05-07T07:03:16;24.65;;;21.23;;
11614;SDS011;5863;52.832;4.758;2023-05-07T07:05:43;25.05;;;22.38;;
11614;SDS011;5863;52.832;4.758;2023-05-07T07:08:11;23.58;;;21.27;;
11614;SDS011;5863;52.832;4.758;2023-05-07T07:10:37;23.27;;;20.20;;
11614;SDS011;5863;52.832;4.758;2023-05-07T07:13:04;22.20;;;19.80;;
11614;SDS011;5863;52.832;4.758;2023-05-07T07:15:31;22.65;;;20.45;;
11614;SDS011;5863;52.832;4.758;2023-05-07T07:17:57;21.33;;;19.15;;
11614;SDS011;5863;52.832;4.758;2023-05-07T07:20:24;20.90;;;18.73;;
11614;SDS011;5863;52.832;4.758;2023-05-07T07:22:51;20.50;;;18.45;;
11614;SDS011;5863;52.832;4.758;2023-05-07T07:25:19;20.55;;;18.30;;
11614;SDS011;5863;52.832;4.758;2023-05-07T07:27:46;20.80;;;18.58;;
11614;SDS011;5863;52.832;4.758;2023-05-07T07:30:12;20.50;;;18.42;;
11614;SDS011;5863;52.832;4.758;2023-05-07T07:32:39;20.70;;;18.60;;
11614;SDS011;5863;52.832;4.758;2023-05-07T07:35:06;20.90;;;18.85;;
11614;SDS011;5863;52.832;4.758;2023-05-07T07:37:33;25.00;;;18.67;;
11614;SDS011;5863;52.832;4.758;2023-05-07T07:40:00;20.30;;;17.27;;
11614;SDS011;5863;52.832;4.758;2023-05-07T07:42:29;20.08;;;18.00;;
11614;SDS011;5863;52.832;4.758;2023-05-07T07:44:56;20.98;;;18.48;;
11614;SDS011;5863;52.832;4.758;2023-05-07T07:47:23;19.73;;;17.73;;
11614;SDS011;5863;52.832;4.758;2023-05-07T07:49:49;20.25;;;18.13;;
11614;SDS011;5863;52.832;4.758;2023-05-07T07:52:16;19.55;;;17.50;;
11614;SDS011;5863;52.832;4.758;2023-05-07T07:54:43;18.70;;;16.83;;
11614;SDS011;5863;52.832;4.758;2023-05-07T07:57:10;19.33;;;17.27;;
11614;SDS011;5863;52.832;4.758;2023-05-07T07:59:38;18.88;;;16.85;;
11614;SDS011;5863;52.832;4.758;2023-05-07T08:02:05;17.77;;;15.98;;
11614;SDS011;5863;52.832;4.758;2023-05-07T08:04:32;18.52;;;16.63;;
11614;SDS011;5863;52.832;4.758;2023-05-07T08:06:58;18.65;;;16.63;;
11614;SDS011;5863;52.832;4.758;2023-05-07T08:09:25;18.23;;;16.33;;
11614;SDS011;5863;52.832;4.758;2023-05-07T08:11:52;18.70;;;16.70;;
11614;SDS011;5863;52.832;4.758;2023-05-07T08:14:18;19.10;;;16.65;;
11614;SDS011;5863;52.832;4.758;2023-05-07T08:16:46;18.67;;;16.73;;
11614;SDS011;5863;52.832;4.758;2023-05-07T08:19:13;18.33;;;16.52;;
11614;SDS011;5863;52.832;4.758;2023-05-07T08:21:39;17.40;;;15.57;;
11614;SDS011;5863;52.832;4.758;2023-05-07T08:24:06;19.77;;;15.95;;
11614;SDS011;5863;52.832;4.758;2023-05-07T08:26:33;19.27;;;16.10;;
11614;SDS011;5863;52.832;4.758;2023-05-07T08:29:00;18.65;;;15.20;;
11614;SDS011;5863;52.832;4.758;2023-05-07T08:31:27;16.38;;;14.75;;
11614;SDS011;5863;52.832;4.758;2023-05-07T08:33:55;17.85;;;15.32;;
11614;SDS011;5863;52.832;4.758;2023-05-07T08:36:22;17.15;;;15.38;;
11614;SDS011;5863;52.832;4.758;2023-05-07T08:38:48;17.38;;;15.57;;
11614;SDS011;5863;52.832;4.758;2023-05-07T08:41:15;19.33;;;16.52;;
11614;SDS011;5863;52.832;4.758;2023-05-07T08:43:42;21.15;;;15.50;;
11614;SDS011;5863;52.832;4.758;2023-05-07T08:46:13;18.15;;;14.73;;
11614;SDS011;5863;52.832;4.758;2023-05-07T08:48:43;18.02;;;15.93;;
11614;SDS011;5863;52.832;4.758;2023-05-07T08:51:13;17.83;;;15.93;;
11614;SDS011;5863;52.832;4.758;2023-05-07T08:53:42;17.13;;;15.35;;
11614;SDS011;5863;52.832;4.758;2023-05-07T08:56:09;20.00;;;15.27;;
11614;SDS011;5863;52.832;4.758;2023-05-07T08:58:35;19.70;;;15.43;;
11614;SDS011;5863;52.832;4.758;2023-05-07T09:01:03;17.40;;;14.90;;
11614;SDS011;5863;52.832;4.758;2023-05-07T09:03:33;17.00;;;15.20;;
11614;SDS011;5863;52.832;4.758;2023-05-07T09:06:00;17.58;;;15.70;;
11614;SDS011;5863;52.832;4.758;2023-05-07T09:08:28;17.25;;;15.50;;
11614;SDS011;5863;52.832;4.758;2023-05-07T09:10:55;18.42;;;15.90;;
11614;SDS011;5863;52.832;4.758;2023-05-07T09:13:23;19.65;;;15.13;;
11614;SDS011;5863;52.832;4.758;2023-05-07T09:15:50;20.55;;;16.13;;
11614;SDS011;5863;52.832;4.758;2023-05-07T09:18:16;17.30;;;15.48;;
11614;SDS011;5863;52.832;4.758;2023-05-07T09:20:43;18.02;;;16.20;;
11614;SDS011;5863;52.832;4.758;2023-05-07T09:23:10;17.73;;;15.93;;
11614;SDS011;5863;52.832;4.758;2023-05-07T09:25:38;19.23;;;16.88;;
11614;SDS011;5863;52.832;4.758;2023-05-07T09:28:05;18.63;;;16.83;;
11614;SDS011;5863;52.832;4.758;2023-05-07T09:30:32;18.38;;;16.42;;
11614;SDS011;5863;52.832;4.758;2023-05-07T09:33:01;18.05;;;16.15;;
11614;SDS011;5863;52.832;4.758;2023-05-07T09:35:29;17.33;;;15.40;;
11614;SDS011;5863;52.832;4.758;2023-05-07T09:37:57;16.63;;;14.93;;
11614;SDS011;5863;52.832;4.758;2023-05-07T09:40:25;18.70;;;15.60;;
11614;SDS011;5863;52.832;4.758;2023-05-07T09:42:55;19.00;;;16.20;;
11614;SDS011;5863;52.832;4.758;2023-05-07T09:45:22;17.77;;;15.93;;
11614;SDS011;5863;52.832;4.758;2023-05-07T09:47:52;18.65;;;16.15;;
11614;SDS011;5863;52.832;4.758;2023-05-07T09:50:22;18.50;;;16.55;;
11614;SDS011;5863;52.832;4.758;2023-05-07T09:52:54;18.52;;;16.17;;
11614;SDS011;5863;52.832;4.758;2023-05-07T09:55:21;18.58;;;15.35;;
11614;SDS011;5863;52.832;4.758;2023-05-07T09:57:48;19.48;;;16.02;;
11614;SDS011;5863;52.832;4.758;2023-05-07T10:00:18;19.27;;;15.85;;
11614;SDS011;5863;52.832;4.758;2023-05-07T10:02:46;18.42;;;15.93;;
11614;SDS011;5863;52.832;4.758;2023-05-07T10:05:14;17.50;;;15.80;;
11614;SDS011;5863;52.832;4.758;2023-05-07T10:07:41;18.65;;;16.75;;
11614;SDS011;5863;52.832;4.758;2023-05-07T10:10:09;18.33;;;15.32;;
11614;SDS011;5863;52.832;4.758;2023-05-07T10:12:37;17.15;;;15.40;;
11614;SDS011;5863;52.832;4.758;2023-05-07T10:15:05;17.85;;;16.08;;
11614;SDS011;5863;52.832;4.758;2023-05-07T10:17:36;18.13;;;16.23;;
11614;SDS011;5863;52.832;4.758;2023-05-07T10:20:03;18.15;;;16.25;;
11614;SDS011;5863;52.832;4.758;2023-05-07T10:22:31;19.27;;;15.88;;
11614;SDS011;5863;52.832;4.758;2023-05-07T10:25:03;18.38;;;16.50;;
11614;SDS011;5863;52.832;4.758;2023-05-07T10:27:36;17.75;;;15.80;;
11614;SDS011;5863;52.832;4.758;2023-05-07T10:30:07;18.10;;;16.17;;
11614;SDS011;5863;52.832;4.758;2023-05-07T10:32:44;16.85;;;15.13;;
11614;SDS011;5863;52.832;4.758;2023-05-07T10:35:14;17.40;;;15.70;;
11614;SDS011;5863;52.832;4.758;2023-05-07T10:37:43;16.48;;;14.70;;
11614;SDS011;5863;52.832;4.758;2023-05-07T10:40:11;18.60;;;15.38;;
11614;SDS011;5863;52.832;4.758;2023-05-07T10:42:39;17.38;;;15.32;;
11614;SDS011;5863;52.832;4.758;2023-05-07T10:45:20;16.40;;;14.80;;
11614;SDS011;5863;52.832;4.758;2023-05-07T10:50:43;15.40;;;13.27;;
11614;SDS011;5863;52.832;4.758;2023-05-07T10:53:21;16.52;;;14.82;;
11614;SDS011;5863;52.832;4.758;2023-05-07T11:01:57;14.75;;;13.23;;
11614;SDS011;5863;52.832;4.758;2023-05-07T11:04:26;16.60;;;14.23;;
11614;SDS011;5863;52.832;4.758;2023-05-07T11:07:14;14.68;;;13.10;;
11614;SDS011;5863;52.832;4.758;2023-05-07T11:09:57;15.88;;;12.80;;
11614;SDS011;5863;52.832;4.758;2023-05-07T11:12:46;14.27;;;12.63;;
11614;SDS011;5863;52.832;4.758;2023-05-07T11:15:36;15.13;;;13.32;;
11614;SDS011;5863;52.832;4.758;2023-05-07T11:18:04;15.23;;;13.10;;
11614;SDS011;5863;52.832;4.758;2023-05-07T11:20:49;14.60;;;13.15;;
11614;SDS011;5863;52.832;4.758;2023-05-07T11:26:42;14.48;;;13.07;;
11614;SDS011;5863;52.832;4.758;2023-05-07T11:29:11;14.75;;;13.18;;
11614;SDS011;5863;52.832;4.758;2023-05-07T11:31:38;14.80;;;13.38;;
11614;SDS011;5863;52.832;4.758;2023-05-07T11:34:05;15.52;;;13.18;;
11614;SDS011;5863;52.832;4.758;2023-05-07T11:36:35;18.85;;;14.13;;
11614;SDS011;5863;52.832;4.758;2023-05-07T11:39:12;14.60;;;12.82;;
11614;SDS011;5863;52.832;4.758;2023-05-07T11:41:49;14.85;;;13.35;;
11614;SDS011;5863;52.832;4.758;2023-05-07T11:44:16;14.50;;;13.00;;
11614;SDS011;5863;52.832;4.758;2023-05-07T11:46:43;15.27;;;13.70;;
11614;SDS011;5863;52.832;4.758;2023-05-07T11:49:10;16.48;;;14.82;;
11614;SDS011;5863;52.832;4.758;2023-05-07T11:51:38;19.25;;;16.35;;
11614;SDS011;5863;52.832;4.758;2023-05-07T11:54:08;18.85;;;16.70;;
11614;SDS011;5863;52.832;4.758;2023-05-07T11:56:36;17.35;;;15.02;;
11614;SDS011;5863;52.832;4.758;2023-05-07T11:59:04;16.33;;;12.93;;
11614;SDS011;5863;52.832;4.758;2023-05-07T12:01:31;15.45;;;13.27;;
11614;SDS011;5863;52.832;4.758;2023-05-07T12:03:57;15.88;;;13.43;;
11614;SDS011;5863;52.832;4.758;2023-05-07T12:06:24;14.77;;;13.10;;
11614;SDS011;5863;52.832;4.758;2023-05-07T12:08:54;16.42;;;12.75;;
11614;SDS011;5863;52.832;4.758;2023-05-07T12:11:22;14.63;;;13.00;;
11614;SDS011;5863;52.832;4.758;2023-05-07T12:13:50;13.35;;;11.45;;
11614;SDS011;5863;52.832;4.758;2023-05-07T12:16:16;12.93;;;11.45;;
11614;SDS011;5863;52.832;4.758;2023-05-07T12:18:59;13.20;;;11.65;;
11614;SDS011;5863;52.832;4.758;2023-05-07T12:21:26;13.77;;;11.73;;
11614;SDS011;5863;52.832;4.758;2023-05-07T12:23:54;15.30;;;13.30;;
11614;SDS011;5863;52.832;4.758;2023-05-07T12:26:22;14.40;;;12.95;;
11614;SDS011;5863;52.832;4.758;2023-05-07T12:28:49;15.48;;;13.68;;
11614;SDS011;5863;52.832;4.758;2023-05-07T12:31:16;16.15;;;14.45;;
11614;SDS011;5863;52.832;4.758;2023-05-07T12:33:43;17.33;;;14.93;;
11614;SDS011;5863;52.832;4.758;2023-05-07T12:36:13;16.88;;;14.80;;
11614;SDS011;5863;52.832;4.758;2023-05-07T12:38:39;16.00;;;14.30;;
11614;SDS011;5863;52.832;4.758;2023-05-07T12:41:08;16.38;;;14.30;;
11614;SDS011;5863;52.832;4.758;2023-05-07T12:43:37;19.75;;;17.65;;
11614;SDS011;5863;52.832;4.758;2023-05-07T12:46:04;17.35;;;15.55;;
11614;SDS011;5863;52.832;4.758;2023-05-07T12:48:32;20.83;;;18.27;;
11614;SDS011;5863;52.832;4.758;2023-05-07T12:50:59;21.20;;;18.90;;
11614;SDS011;5863;52.832;4.758;2023-05-07T12:53:27;20.48;;;18.30;;
11614;SDS011;5863;52.832;4.758;2023-05-07T12:55:55;20.27;;;18.00;;
11614;SDS011;5863;52.832;4.758;2023-05-07T12:58:26;21.50;;;16.67;;
11614;SDS011;5863;52.832;4.758;2023-05-07T13:00:53;22.20;;;18.55;;
11614;SDS011;5863;52.832;4.758;2023-05-07T13:03:24;20.00;;;17.52;;
11614;SDS011;5863;52.832;4.758;2023-05-07T13:05:52;19.92;;;17.85;;
11614;SDS011;5863;52.832;4.758;2023-05-07T13:08:29;18.77;;;16.77;;
11614;SDS011;5863;52.832;4.758;2023-05-07T13:10:57;20.17;;;17.77;;
11614;SDS011;5863;52.832;4.758;2023-05-07T13:13:29;19.83;;;15.68;;
11614;SDS011;5863;52.832;4.758;2023-05-07T13:16:02;14.23;;;12.82;;
11614;SDS011;5863;52.832;4.758;2023-05-07T13:18:31;15.60;;;13.93;;
11614;SDS011;5863;52.832;4.758;2023-05-07T13:20:59;14.63;;;13.07;;
11614;SDS011;5863;52.832;4.758;2023-05-07T13:23:26;18.50;;;15.07;;
11614;SDS011;5863;52.832;4.758;2023-05-07T13:25:53;18.77;;;15.93;;
11614;SDS011;5863;52.832;4.758;2023-05-07T13:28:21;19.08;;;16.98;;
11614;SDS011;5863;52.832;4.758;2023-05-07T13:30:49;18.80;;;16.67;;
11614;SDS011;5863;52.832;4.758;2023-05-07T13:33:17;19.48;;;16.60;;
11614;SDS011;5863;52.832;4.758;2023-05-07T13:35:44;19.25;;;16.15;;
11614;SDS011;5863;52.832;4.758;2023-05-07T13:38:11;18.65;;;16.65;;
11614;SDS011;5863;52.832;4.758;2023-05-07T13:40:38;20.23;;;17.25;;
11614;SDS011;5863;52.832;4.758;2023-05-07T13:43:05;20.83;;;17.65;;
11614;SDS011;5863;52.832;4.758;2023-05-07T13:45:32;19.58;;;17.48;;
11614;SDS011;5863;52.832;4.758;2023-05-07T13:48:00;20.00;;;17.05;;
11614;SDS011;5863;52.832;4.758;2023-05-07T13:50:27;19.98;;;17.75;;
11614;SDS011;5863;52.832;4.758;2023-05-07T13:52:55;19.70;;;17.15;;
11614;SDS011;5863;52.832;4.758;2023-05-07T13:55:22;21.33;;;17.35;;
11614;SDS011;5863;52.832;4.758;2023-05-07T13:57:54;19.45;;;17.40;;
11614;SDS011;5863;52.832;4.758;2023-05-07T14:00:21;18.90;;;16.17;;
11614;SDS011;5863;52.832;4.758;2023-05-07T14:02:48;20.92;;;17.25;;
11614;SDS011;5863;52.832;4.758;2023-05-07T14:05:16;19.73;;;16.88;;
11614;SDS011;5863;52.832;4.758;2023-05-07T14:07:42;19.23;;;16.95;;
11614;SDS011;5863;52.832;4.758;2023-05-07T14:10:09;24.55;;;18.92;;
11614;SDS011;5863;52.832;4.758;2023-05-07T14:12:38;26.05;;;18.95;;
11614;SDS011;5863;52.832;4.758;2023-05-07T14:15:05;26.10;;;20.30;;
11614;SDS011;5863;52.832;4.758;2023-05-07T14:17:33;24.42;;;19.77;;
11614;SDS011;5863;52.832;4.758;2023-05-07T14:19:59;22.77;;;19.35;;
11614;SDS011;5863;52.832;4.758;2023-05-07T14:22:27;19.95;;;17.10;;
11614;SDS011;5863;52.832;4.758;2023-05-07T14:24:55;16.70;;;14.90;;
11614;SDS011;5863;52.832;4.758;2023-05-07T14:27:22;15.48;;;12.98;;
11614;SDS011;5863;52.832;4.758;2023-05-07T14:29:48;16.38;;;12.23;;
11614;SDS011;5863;52.832;4.758;2023-05-07T14:32:16;14.73;;;11.80;;
11614;SDS011;5863;52.832;4.758;2023-05-07T14:34:43;12.18;;;10.93;;
11614;SDS011;5863;52.832;4.758;2023-05-07T14:37:10;12.32;;;11.02;;
11614;SDS011;5863;52.832;4.758;2023-05-07T14:39:38;12.43;;;11.00;;
11614;SDS011;5863;52.832;4.758;2023-05-07T14:42:06;11.55;;;10.45;;
11614;SDS011;5863;52.832;4.758;2023-05-07T14:44:33;12.50;;;11.20;;
11614;SDS011;5863;52.832;4.758;2023-05-07T14:47:00;14.32;;;11.52;;
11614;SDS011;5863;52.832;4.758;2023-05-07T14:49:27;13.23;;;11.30;;
11614;SDS011;5863;52.832;4.758;2023-05-07T14:51:53;11.75;;;10.02;;
11614;SDS011;5863;52.832;4.758;2023-05-07T14:54:22;15.00;;;11.02;;